Terminal Aerodrome Forecast
Issued by NWS

Home | Current Version | Previous Version | Text Only | Print | Product List | Glossary On
Versions: 1 2 3 4 5 6 7 8 9 10 11 12 13 14 15
000
FTUS46 KMFR 061733
TAFLMT
TAF
KLMT 061733Z 0618/0718 32012KT P6SM SCT050
     FM061900 34015G25KT P6SM BKN070
     FM070000 34023G32KT P6SM VCTS BKN060CB
     FM070400 34012KT P6SM BKN050=

USA.gov is the U.S. government's official web portal to all federal, state and local government web resources and services.